Laura, Ohio
Current Conditions -  °F | °C
As of 8:56 PM on Friday 28 Nov 2014 (Local Time) from KDAY Reporting Station
Overcast Overcast  
Wind Chill: 24°   Ceiling: 16000
Heat Index: 33°   Visibility: 10mi
Dew Point: 18°   Wind: 13mph
Humidity: 54%   Direction: 170°S
Pressure: 30.11"   Gusts: NA
Location:  39.99°N, 84.41°W
Report Text: KDAY 290156Z 17011KT 10SM OVC160 01/M08 A3011 RMK AO2 SLP209 T00061078 $
Loading
Personal Weather Stations






























Interactive Weather Map New forecast layout! Learn more

10-Day Weather Forecast

Advertisements
Track Severe Weather on mobile